Time;durP1;ratioP1;P1;durP2;ratioP2;P2;SDS_P1;SDS_P2;PMS_P1;PMS_P2;Temp;Humidity;BMP_temperature;BMP_pressure;BME280_temperature;BME280_humidity;BME280_pressure;Samples;Min_cycle;Max_cycle;Signal;HPM_P1;HPM_P2
2023/05/08 00:01:25;;;;;;;;;;;;;;;2.44;53.02;101179.16;4981366;28;20345;-73
2023/05/08 00:03:51;;;;;;;;;;;;;;;2.45;53.03;101170.88;4972106;28;19929;-76
2023/05/08 00:06:19;;;;;;;;;;;;;;;2.51;53.32;101177.41;4994188;28;20016;-77
2023/05/08 00:08:45;;;;;;;;;;;;;;;2.56;53.15;101174.97;4989367;28;19925;-77
2023/05/08 00:11:10;;;;;;;;;;;;;;;2.54;53.27;101183.22;4986728;28;19980;-77
2023/05/08 00:13:36;;;;;;;;;;;;;;;2.54;53.13;101177.00;4986689;28;19925;-77
2023/05/08 00:16:02;;;;;;;;;;;;;;;2.49;53.26;101177.56;4991126;28;20020;-76
2023/05/08 00:18:29;;;;;;;;;;;;;;;2.49;53.29;101182.97;4985954;28;20320;-76
2023/05/08 00:20:57;;;;;;;;;;;;;;;2.46;53.20;101180.66;4949644;28;19926;-77
2023/05/08 00:23:24;;;;;;;;;;;;;;;2.43;53.17;101186.44;4983119;28;19980;-74
2023/05/08 00:25:50;;;;;;;;;;;;;;;2.39;53.28;101185.97;4983380;28;19925;-73
2023/05/08 00:28:16;;;;;;;;;;;;;;;2.33;53.43;101185.84;4984821;28;19932;-73
2023/05/08 00:30:42;;;;;;;;;;;;;;;2.32;53.37;101195.00;4990123;28;20565;-74
2023/05/08 00:33:08;;;;;;;;;;;;;;;2.33;53.52;101199.34;4989191;28;19988;-74
2023/05/08 00:35:34;;;;;;;;;;;;;;;2.33;53.42;101192.06;4985106;28;19932;-75
2023/05/08 00:38:00;;;;;;;;;;;;;;;2.34;53.57;101196.47;4990751;28;19983;-75
2023/05/08 00:40:28;;;;;;;;;;;;;;;2.30;53.56;101194.34;4970274;28;19933;-75
2023/05/08 00:42:54;;;;;;;;;;;;;;;2.31;53.79;101198.72;4986058;28;20025;-75
2023/05/08 00:45:19;;;;;;;;;;;;;;;2.30;53.85;101195.16;4970610;28;19941;-75
2023/05/08 00:47:45;;;;;;;;;;;;;;;2.32;53.91;101201.22;4987631;28;19975;-75
2023/05/08 00:50:11;;;;;;;;;;;;;;;2.29;53.79;101198.06;4981934;28;20362;-75
2023/05/08 00:52:37;;;;;;;;;;;;;;;2.26;54.01;101196.56;4987017;28;20400;-76
2023/05/08 00:55:03;;;;;;;;;;;;;;;2.22;53.86;101196.09;4970614;28;19929;-75
2023/05/08 00:57:34;;;;;;;;;;;;;;;2.16;54.00;101201.38;4988314;28;19930;-75
2023/05/08 01:00:02;;;;;;;;;;;;;;;2.13;53.97;101205.31;4968408;28;19929;-75
2023/05/08 01:02:32;;;;;;;;;;;;;;;2.19;54.14;101199.16;4990601;28;20478;-76
2023/05/08 01:04:58;;;;;;;;;;;;;;;2.32;53.91;101197.69;4964320;28;20061;-74
2023/05/08 01:07:23;;;;;;;;;;;;;;;2.38;53.76;101205.03;4991308;28;19937;-74
2023/05/08 01:09:49;;;;;;;;;;;;;;;2.36;53.61;101207.09;4990900;28;19937;-74
2023/05/08 01:12:18;;;;;;;;;;;;;;;2.33;54.48;101205.56;4970188;28;19927;-74
2023/05/08 01:14:53;;;;;;;;;;;;;;;2.28;54.56;101208.00;4986062;28;19932;-75
2023/05/08 01:17:22;;;;;;;;;;;;;;;2.28;56.07;101207.19;4975133;28;20016;-75
2023/05/08 01:19:56;;;;;;;;;;;;;;;2.32;56.30;101211.19;4992241;28;19929;-74
2023/05/08 01:22:33;;;;;;;;;;;;;;;2.32;56.74;101208.47;4993077;28;19925;-73
2023/05/08 01:25:15;;;;;;;;;;;;;;;2.27;56.60;101209.03;4990497;28;20459;-76
2023/05/08 01:27:54;;;;;;;;;;;;;;;2.23;57.13;101215.81;4974496;28;19926;-76
2023/05/08 01:30:36;;;;;;;;;;;;;;;2.24;57.39;101221.03;4992797;28;19929;-76
2023/05/08 01:33:07;;;;;;;;;;;;;;;2.19;57.59;101220.75;4984794;28;19925;-78
2023/05/08 01:35:35;;;;;;;;;;;;;;;2.13;57.81;101225.03;4986463;28;20039;-75
2023/05/08 01:38:05;;;;;;;;;;;;;;;2.15;58.16;101221.28;4987394;28;20041;-76
2023/05/08 01:40:34;;;;;;;;;;;;;;;2.13;58.31;101225.03;4989441;28;20384;-76
2023/05/08 01:43:04;;;;;;;;;;;;;;;2.13;58.64;101218.81;4980591;28;19960;-77
2023/05/08 01:45:33;;;;;;;;;;;;;;;2.14;58.64;101223.19;4984934;28;19988;-77
2023/05/08 01:48:02;;;;;;;;;;;;;;;2.16;58.91;101228.38;4979379;28;20385;-77
2023/05/08 01:50:33;;;;;;;;;;;;;;;2.17;58.71;101227.34;4984290;28;19998;-77
2023/05/08 01:53:02;;;;;;;;;;;;;;;2.17;58.81;101228.19;4988543;28;19949;-77
2023/05/08 01:55:30;;;;;;;;;;;;;;;2.16;58.97;101234.63;4986709;28;19933;-77
2023/05/08 01:57:57;;;;;;;;;;;;;;;2.13;59.37;101224.19;4990651;28;19929;-76
2023/05/08 02:00:24;;;;;;;;;;;;;;;2.10;58.98;101224.53;4989476;28;20393;-76
2023/05/08 02:02:51;;;;;;;;;;;;;;;2.14;58.90;101231.28;4990085;28;19926;-77
2023/05/08 02:05:18;;;;;;;;;;;;;;;2.19;58.50;101233.41;4984857;28;19925;-76
2023/05/08 02:07:48;;;;;;;;;;;;;;;2.20;58.29;101237.78;4974944;28;19932;-77
2023/05/08 02:10:14;;;;;;;;;;;;;;;2.23;57.68;101237.41;4982443;28;20412;-76
2023/05/08 02:12:42;;;;;;;;;;;;;;;2.25;57.51;101238.06;4989190;28;20400;-75
2023/05/08 02:15:09;;;;;;;;;;;;;;;2.26;57.30;101237.03;4987389;28;20506;-75
2023/05/08 02:17:37;;;;;;;;;;;;;;;2.27;57.09;101244.13;4991916;28;19932;-75
2023/05/08 02:20:03;;;;;;;;;;;;;;;2.30;56.94;101245.63;4987693;28;19957;-75
2023/05/08 02:22:32;;;;;;;;;;;;;;;2.32;56.71;101243.56;4984840;28;19925;-74
2023/05/08 02:25:00;;;;;;;;;;;;;;;2.31;56.94;101245.41;4981005;28;20685;-75
2023/05/08 02:27:26;;;;;;;;;;;;;;;2.36;56.94;101252.97;4984819;28;19932;-75
2023/05/08 02:29:53;;;;;;;;;;;;;;;2.39;56.66;101256.16;4983225;28;20357;-75
2023/05/08 02:32:20;;;;;;;;;;;;;;;2.45;56.53;101253.72;4982777;28;19969;-75
2023/05/08 02:34:47;;;;;;;;;;;;;;;2.51;56.75;101250.31;4986553;28;19925;-74
2023/05/08 02:37:15;;;;;;;;;;;;;;;2.56;56.40;101258.66;4985927;28;20305;-75
2023/05/08 02:39:42;;;;;;;;;;;;;;;2.60;56.41;101262.66;4951353;28;19926;-75
2023/05/08 02:42:09;;;;;;;;;;;;;;;2.63;56.22;101266.88;4985673;28;20239;-75
2023/05/08 02:44:35;;;;;;;;;;;;;;;2.66;56.29;101259.25;4985948;28;20323;-75
2023/05/08 02:47:05;;;;;;;;;;;;;;;2.69;56.02;101263.41;4998458;28;20008;-75
2023/05/08 02:49:36;;;;;;;;;;;;;;;2.74;55.98;101266.41;4982206;28;19932;-75
2023/05/08 02:52:05;;;;;;;;;;;;;;;2.79;55.55;101268.53;4966308;28;19926;-75
2023/05/08 02:54:34;;;;;;;;;;;;;;;2.83;55.70;101269.84;4969279;28;19926;-75
2023/05/08 02:57:02;;;;;;;;;;;;;;;2.90;55.53;101270.75;4982946;28;19937;-75
2023/05/08 02:59:35;;;;;;;;;;;;;;;2.96;55.40;101272.72;4982795;28;19926;-75
2023/05/08 03:02:05;;;;;;;;;;;;;;;3.02;55.26;101279.22;4983149;28;19937;-75
2023/05/08 03:04:34;;;;;;;;;;;;;;;3.08;54.73;101277.63;4982448;28;19985;-76
2023/05/08 03:07:00;;;;;;;;;;;;;;;3.14;54.45;101278.75;4989360;28;19933;-75
2023/05/08 03:09:33;;;;;;;;;;;;;;;3.18;54.38;101280.03;4985909;28;19925;-75
2023/05/08 03:12:02;;;;;;;;;;;;;;;3.24;54.02;101288.22;4970329;28;20304;-76
2023/05/08 03:14:34;;;;;;;;;;;;;;;3.30;53.93;101296.63;4975951;28;20195;-75
2023/05/08 03:17:02;;;;;;;;;;;;;;;3.35;53.78;101289.59;4986106;28;20035;-75
2023/05/08 03:19:31;;;;;;;;;;;;;;;3.44;53.36;101294.91;4968106;28;19925;-75
2023/05/08 03:21:58;;;;;;;;;;;;;;;3.51;53.40;101288.53;4984867;28;19926;-76
2023/05/08 03:24:26;;;;;;;;;;;;;;;3.58;53.16;101290.47;4982932;28;19973;-73
2023/05/08 03:26:53;;;;;;;;;;;;;;;3.65;52.76;101292.22;4984993;28;20367;-73
2023/05/08 03:29:19;;;;;;;;;;;;;;;3.72;52.90;101299.59;4987096;28;19926;-73
2023/05/08 03:31:47;;;;;;;;;;;;;;;3.76;52.47;101296.31;4985542;28;19972;-73
2023/05/08 03:34:14;;;;;;;;;;;;;;;3.82;52.23;101295.53;4983148;28;19983;-75
2023/05/08 03:36:41;;;;;;;;;;;;;;;3.91;52.11;101300.81;4986189;28;19975;-76
2023/05/08 03:39:07;;;;;;;;;;;;;;;3.97;51.97;101294.63;4988025;28;20420;-75
2023/05/08 03:41:33;;;;;;;;;;;;;;;4.04;51.79;101302.81;4988521;28;19925;-76
2023/05/08 03:44:01;;;;;;;;;;;;;;;4.09;51.63;101305.75;4992007;28;20158;-74
2023/05/08 03:46:27;;;;;;;;;;;;;;;4.15;51.27;101309.56;4989044;28;19929;-74
2023/05/08 03:48:59;;;;;;;;;;;;;;;4.21;51.07;101316.88;4969563;28;19926;-75
2023/05/08 03:51:26;;;;;;;;;;;;;;;4.28;50.84;101309.66;4986833;28;20547;-74
2023/05/08 03:53:52;;;;;;;;;;;;;;;4.33;50.79;101304.50;4995320;28;19926;-75
2023/05/08 03:56:18;;;;;;;;;;;;;;;4.40;50.53;101310.81;4997095;28;19932;-74
2023/05/08 03:58:49;;;;;;;;;;;;;;;4.47;50.31;101307.31;4987362;28;19976;-74
2023/05/08 04:01:20;;;;;;;;;;;;;;;4.54;50.29;101310.91;4973347;28;19925;-74
2023/05/08 04:03:52;;;;;;;;;;;;;;;4.60;49.97;101314.69;4988516;28;19925;-73
2023/05/08 04:06:25;;;;;;;;;;;;;;;4.66;49.98;101314.72;4989876;28;19972;-73
2023/05/08 04:08:54;;;;;;;;;;;;;;;4.75;49.94;101312.69;4967775;28;19926;-74
2023/05/08 04:11:25;;;;;;;;;;;;;;;4.83;49.75;101311.69;4985229;28;20400;-74
2023/05/08 04:13:55;;;;;;;;;;;;;;;4.90;49.56;101318.00;4987774;28;20618;-73
2023/05/08 04:16:24;;;;;;;;;;;;;;;4.94;49.53;101316.56;4969130;28;20060;-73
2023/05/08 04:18:53;;;;;;;;;;;;;;;5.04;49.48;101310.78;4977848;28;19929;-73
2023/05/08 04:21:23;;;;;;;;;;;;;;;5.11;49.41;101306.25;4986034;28;19930;-73
2023/05/08 04:23:51;;;;;;;;;;;;;;;5.14;49.23;101313.13;4992974;28;19941;-74
2023/05/08 04:26:17;;;;;;;;;;;;;;;5.20;49.05;101309.63;4991500;28;20421;-73
2023/05/08 04:28:48;;;;;;;;;;;;;;;5.29;48.79;101310.28;4982169;28;20342;-73
2023/05/08 04:31:15;;;;;;;;;;;;;;;5.35;48.78;101311.34;4989444;28;19926;-76
2023/05/08 04:33:42;;;;;;;;;;;;;;;5.38;48.53;101308.22;4974973;28;19976;-73
2023/05/08 04:36:09;;;;;;;;;;;;;;;5.43;48.43;101307.63;4988589;28;20051;-73
2023/05/08 04:38:37;;;;;;;;;;;;;;;5.50;48.26;101306.59;4988105;28;19925;-73
2023/05/08 04:41:04;;;;;;;;;;;;;;;5.59;48.09;101312.69;4987418;28;19929;-76
2023/05/08 04:43:30;;;;;;;;;;;;;;;5.63;47.74;101307.69;4974615;28;19925;-75
2023/05/08 04:45:55;;;;;;;;;;;;;;;5.66;47.68;101305.38;4992342;28;19925;-72
2023/05/08 04:48:23;;;;;;;;;;;;;;;5.73;47.55;101310.00;4985071;28;19932;-73
2023/05/08 04:50:49;;;;;;;;;;;;;;;5.80;47.38;101308.13;4991780;28;19933;-73
2023/05/08 04:53:15;;;;;;;;;;;;;;;5.89;47.03;101308.75;4983403;28;19926;-73
2023/05/08 04:55:43;;;;;;;;;;;;;;;5.96;47.02;101320.47;4984145;28;19926;-73
2023/05/08 04:58:09;;;;;;;;;;;;;;;5.97;47.00;101314.81;4982215;28;19932;-73
2023/05/08 05:00:35;;;;;;;;;;;;;;;6.02;46.86;101313.44;4984596;28;20439;-73
2023/05/08 05:03:01;;;;;;;;;;;;;;;6.02;46.63;101313.44;4968025;28;19926;-73
2023/05/08 05:05:27;;;;;;;;;;;;;;;5.94;46.49;101301.66;4986566;28;19957;-75
2023/05/08 05:07:54;;;;;;;;;;;;;;;6.06;46.35;101317.38;4968086;28;20030;-75
2023/05/08 05:10:20;;;;;;;;;;;;;;;6.14;46.31;101327.22;4986608;28;19968;-75
2023/05/08 05:12:48;;;;;;;;;;;;;;;6.20;46.24;101326.38;4988660;28;19949;-75
2023/05/08 05:15:14;;;;;;;;;;;;;;;6.30;45.92;101331.38;4967132;28;20455;-75
2023/05/08 05:17:40;;;;;;;;;;;;;;;6.34;45.54;101329.94;4991110;28;20028;-73
2023/05/08 05:20:07;;;;;;;;;;;;;;;6.40;45.11;101331.81;4990706;28;20056;-73
2023/05/08 05:22:33;;;;;;;;;;;;;;;6.48;45.21;101333.47;4987268;28;19926;-73
2023/05/08 05:25:00;;;;;;;;;;;;;;;6.55;44.80;101344.34;4985714;28;21144;-73
2023/05/08 05:27:27;;;;;;;;;;;;;;;6.60;44.66;101342.69;4967980;28;19940;-73
2023/05/08 05:29:55;;;;;;;;;;;;;;;6.64;44.11;101343.09;4986161;28;19925;-73
2023/05/08 05:32:21;;;;;;;;;;;;;;;6.69;43.93;101334.28;4983154;28;19926;-73
2023/05/08 05:34:47;;;;;;;;;;;;;;;6.69;43.89;101334.28;4981378;28;20035;-73
2023/05/08 05:37:16;;;;;;;;;;;;;;;6.69;43.93;101331.56;4981977;28;20181;-74
2023/05/08 05:39:42;;;;;;;;;;;;;;;6.74;43.68;101337.22;4981508;28;19926;-74
2023/05/08 05:42:08;;;;;;;;;;;;;;;6.78;43.54;101339.28;4980456;28;19957;-74
2023/05/08 05:44:34;;;;;;;;;;;;;;;6.88;43.43;101335.31;4983805;28;19965;-74
2023/05/08 05:47:03;;;;;;;;;;;;;;;6.98;43.02;101338.44;4985049;28;19972;-74
2023/05/08 05:49:30;;;;;;;;;;;;;;;7.03;42.58;101333.19;4985381;28;19930;-77
2023/05/08 05:51:58;;;;;;;;;;;;;;;7.09;42.71;101334.22;4989481;28;19932;-73
2023/05/08 05:54:24;;;;;;;;;;;;;;;7.17;42.37;101330.41;4982380;28;19930;-73
2023/05/08 05:56:50;;;;;;;;;;;;;;;7.19;42.04;101331.03;4982568;28;19987;-74
2023/05/08 05:59:17;;;;;;;;;;;;;;;7.20;41.89;101338.16;4968567;28;19972;-74
2023/05/08 06:01:43;;;;;;;;;;;;;;;7.26;41.41;101334.59;4982275;28;20477;-73
2023/05/08 06:04:11;;;;;;;;;;;;;;;7.43;41.32;101329.47;4965571;28;20017;-74
2023/05/08 06:06:38;;;;;;;;;;;;;;;7.62;41.06;101333.16;4972743;28;20052;-73
2023/05/08 06:09:05;;;;;;;;;;;;;;;7.87;40.54;101337.81;5005342;28;19925;-73
2023/05/08 06:11:31;;;;;;;;;;;;;;;8.11;39.81;101340.81;4981581;28;20399;-73
2023/05/08 06:13:58;;;;;;;;;;;;;;;8.31;39.11;101337.09;4983888;28;20039;-75
2023/05/08 06:16:24;;;;;;;;;;;;;;;8.40;39.26;101340.38;4954383;28;20478;-74
2023/05/08 06:18:50;;;;;;;;;;;;;;;8.50;39.23;101338.84;4985226;28;20022;-74
2023/05/08 06:21:17;;;;;;;;;;;;;;;8.63;38.81;101343.38;4993040;28;19925;-75
2023/05/08 06:23:43;;;;;;;;;;;;;;;8.60;38.80;101341.09;4986050;28;19980;-73
2023/05/08 06:26:09;;;;;;;;;;;;;;;8.36;39.11;101346.28;4988585;28;19930;-74
2023/05/08 06:28:35;;;;;;;;;;;;;;;8.09;39.18;101340.22;4978742;28;19932;-73
2023/05/08 06:31:01;;;;;;;;;;;;;;;7.79;39.57;101338.91;4981679;28;19988;-74
2023/05/08 06:33:28;;;;;;;;;;;;;;;7.63;39.69;101347.59;4980680;28;19961;-73
2023/05/08 06:35:54;;;;;;;;;;;;;;;7.94;38.98;101343.22;4984453;28;19925;-73
2023/05/08 06:38:22;;;;;;;;;;;;;;;8.41;37.63;101342.91;4986593;28;20029;-75
2023/05/08 06:40:49;;;;;;;;;;;;;;;8.88;36.93;101338.94;4982297;28;20340;-75
2023/05/08 06:43:15;;;;;;;;;;;;;;;9.10;36.09;101336.59;4994782;28;20435;-73
2023/05/08 06:45:42;;;;;;;;;;;;;;;9.46;35.04;101343.09;4987410;28;19930;-73
2023/05/08 06:48:08;;;;;;;;;;;;;;;9.69;34.58;101327.88;4985445;28;19949;-74
2023/05/08 06:50:36;;;;;;;;;;;;;;;9.54;34.80;101328.28;4988075;28;19926;-74
2023/05/08 06:53:02;;;;;;;;;;;;;;;9.70;34.89;101324.09;4987758;28;20467;-72
2023/05/08 06:55:29;;;;;;;;;;;;;;;10.11;33.98;101328.94;4990195;28;20380;-76
2023/05/08 06:57:55;;;;;;;;;;;;;;;10.39;32.58;101332.91;5000218;28;19925;-75
2023/05/08 07:00:21;;;;;;;;;;;;;;;10.38;32.21;101328.53;4993782;28;19930;-77
2023/05/08 07:02:47;;;;;;;;;;;;;;;10.50;32.25;101318.47;4995026;28;19949;-76
2023/05/08 07:05:13;;;;;;;;;;;;;;;10.85;31.87;101319.50;4973482;28;20023;-76
2023/05/08 07:07:39;;;;;;;;;;;;;;;11.03;31.64;101329.47;4986522;28;20432;-75
2023/05/08 07:10:05;;;;;;;;;;;;;;;11.19;31.27;101314.22;4993438;28;19993;-75
2023/05/08 07:12:33;;;;;;;;;;;;;;;11.31;30.74;101319.66;4990605;28;19926;-75
2023/05/08 07:14:59;;;;;;;;;;;;;;;10.80;31.39;101314.78;4986918;28;19926;-75
2023/05/08 07:17:25;;;;;;;;;;;;;;;10.51;31.71;101320.13;4993854;28;19929;-75
2023/05/08 07:19:55;;;;;;;;;;;;;;;10.39;31.80;101311.88;4998112;28;19925;-75
2023/05/08 07:22:22;;;;;;;;;;;;;;;10.08;32.41;101311.94;4970408;28;20447;-73
2023/05/08 07:24:48;;;;;;;;;;;;;;;9.76;32.67;101314.13;4967755;28;19930;-74
2023/05/08 07:27:15;;;;;;;;;;;;;;;9.49;32.98;101309.84;4991477;28;19976;-73
2023/05/08 07:29:42;;;;;;;;;;;;;;;9.41;33.59;101312.91;4982108;28;19926;-74
2023/05/08 07:32:09;;;;;;;;;;;;;;;9.52;33.75;101314.03;4985035;28;19996;-74
2023/05/08 07:34:34;;;;;;;;;;;;;;;10.28;32.74;101312.69;4988811;28;19925;-73
2023/05/08 07:37:01;;;;;;;;;;;;;;;11.03;31.54;101308.44;4978912;28;19930;-73
2023/05/08 07:39:27;;;;;;;;;;;;;;;11.73;30.50;101307.59;4986462;28;19940;-74
2023/05/08 07:41:53;;;;;;;;;;;;;;;12.37;29.58;101305.69;5005827;28;19929;-76
2023/05/08 07:44:19;;;;;;;;;;;;;;;12.96;28.58;101301.63;4987398;28;19935;-75
2023/05/08 07:46:46;;;;;;;;;;;;;;;13.30;28.16;101302.28;4990851;28;19925;-74
2023/05/08 07:49:12;;;;;;;;;;;;;;;13.56;27.67;101302.63;4988762;28;19926;-74
2023/05/08 07:51:39;;;;;;;;;;;;;;;13.77;27.27;101300.06;4990169;28;19926;-75
2023/05/08 07:54:04;;;;;;;;;;;;;;;13.96;27.00;101295.03;4989171;28;20377;-75
2023/05/08 07:56:31;;;;;;;;;;;;;;;14.38;26.56;101295.38;4988700;28;19937;-76
2023/05/08 07:58:57;;;;;;;;;;;;;;;14.64;25.39;101292.78;4987899;28;20420;-76
2023/05/08 08:01:23;;;;;;;;;;;;;;;14.58;25.21;101294.66;4986158;28;20036;-75
2023/05/08 08:03:50;;;;;;;;;;;;;;;13.97;25.71;101296.69;4996889;28;19925;-75
2023/05/08 08:06:17;;;;;;;;;;;;;;;13.67;26.10;101298.06;4986435;28;20020;-75
2023/05/08 08:08:43;;;;;;;;;;;;;;;13.13;27.31;101299.63;4992085;28;19926;-73
2023/05/08 08:11:09;;;;;;;;;;;;;;;12.69;28.01;101299.59;4990493;28;20064;-74
2023/05/08 08:13:35;;;;;;;;;;;;;;;13.30;27.14;101287.75;4986311;28;20464;-74
2023/05/08 08:16:03;;;;;;;;;;;;;;;13.74;25.96;101295.09;4983909;28;20293;-75
2023/05/08 08:18:28;;;;;;;;;;;;;;;14.30;24.90;101288.44;4992068;28;19926;-75
2023/05/08 08:20:56;;;;;;;;;;;;;;;15.01;24.21;101292.75;4988688;28;19926;-75
2023/05/08 08:23:22;;;;;;;;;;;;;;;15.72;23.63;101293.22;4637044;28;9999994;-75
2023/05/08 08:25:47;;;;;;;;;;;;;;;16.47;22.70;101288.31;4970413;28;20912;-75
2023/05/08 08:28:13;;;;;;;;;;;;;;;17.22;21.60;101289.47;4981737;28;19925;-75
2023/05/08 08:30:40;;;;;;;;;;;;;;;16.85;22.02;101288.75;4988173;28;20015;-73
2023/05/08 08:33:06;;;;;;;;;;;;;;;15.33;23.32;101288.19;4986769;28;19961;-73
2023/05/08 08:35:31;;;;;;;;;;;;;;;14.10;25.04;101287.16;4991991;28;19929;-73
2023/05/08 08:37:59;;;;;;;;;;;;;;;13.58;25.61;101283.94;4986015;28;19932;-73
2023/05/08 08:40:25;;;;;;;;;;;;;;;13.98;25.24;101270.03;4983602;28;19926;-74
2023/05/08 08:42:51;;;;;;;;;;;;;;;14.61;24.79;101278.47;4983834;28;19930;-74
2023/05/08 08:45:17;;;;;;;;;;;;;;;14.36;24.84;101281.88;4983340;28;19936;-74
2023/05/08 08:47:44;;;;;;;;;;;;;;;13.99;25.41;101272.50;5005334;28;20371;-73
2023/05/08 08:50:11;;;;;;;;;;;;;;;13.61;25.59;101269.69;4985155;28;19926;-74
2023/05/08 08:52:39;;;;;;;;;;;;;;;13.36;26.15;101278.47;4987237;28;19925;-73
2023/05/08 08:55:11;;;;;;;;;;;;;;;13.32;26.50;101272.66;4986361;28;19930;-73
2023/05/08 08:57:41;;;;;;;;;;;;;;;13.31;26.29;101275.66;4989673;28;20351;-74
2023/05/08 09:00:08;;;;;;;;;;;;;;;13.26;26.45;101279.19;5002594;28;19946;-73
2023/05/08 09:02:34;;;;;;;;;;;;;;;13.28;26.41;101271.50;4989983;28;19925;-74
2023/05/08 09:05:01;;;;;;;;;;;;;;;13.19;26.21;101276.63;4988272;28;20205;-73
2023/05/08 09:07:28;;;;;;;;;;;;;;;13.07;26.37;101273.19;4991663;28;19980;-74
2023/05/08 09:09:54;;;;;;;;;;;;;;;12.95;26.37;101273.31;4990609;28;19926;-73
2023/05/08 09:12:22;;;;;;;;;;;;;;;12.86;26.68;101277.56;4991213;28;19929;-73
2023/05/08 09:14:49;;;;;;;;;;;;;;;12.93;26.53;101277.38;4984622;28;19972;-73
2023/05/08 09:17:15;;;;;;;;;;;;;;;12.90;26.56;101276.81;4976972;28;19932;-74
2023/05/08 09:19:41;;;;;;;;;;;;;;;12.82;26.52;101279.16;4972264;28;20307;-73
2023/05/08 09:22:08;;;;;;;;;;;;;;;12.77;26.88;101271.69;4993641;28;20308;-74
2023/05/08 09:24:52;;;;;;;;;;;;;;;12.66;26.87;101278.16;4993606;28;19926;-74
2023/05/08 09:27:20;;;;;;;;;;;;;;;12.24;27.31;101276.69;4963336;28;19932;-74
2023/05/08 09:29:56;;;;;;;;;;;;;;;11.97;27.73;101274.59;4983491;28;20293;-74
2023/05/08 09:32:23;;;;;;;;;;;;;;;11.82;28.16;101280.63;4988938;28;19932;-74
2023/05/08 09:34:51;;;;;;;;;;;;;;;11.63;28.40;101273.47;4986690;28;19957;-74
2023/05/08 09:37:17;;;;;;;;;;;;;;;11.47;28.66;101272.34;4984318;28;19931;-74
2023/05/08 09:39:45;;;;;;;;;;;;;;;11.32;28.98;101269.31;4987758;28;19925;-74
2023/05/08 09:42:12;;;;;;;;;;;;;;;11.43;28.96;101268.44;4986755;28;19930;-73
2023/05/08 09:44:44;;;;;;;;;;;;;;;11.53;28.93;101272.41;4988940;28;19926;-73
2023/05/08 09:47:12;;;;;;;;;;;;;;;11.70;28.85;101280.69;4989977;28;20618;-74
2023/05/08 09:49:39;;;;;;;;;;;;;;;11.84;28.61;101273.81;4989056;28;20031;-74
2023/05/08 09:52:05;;;;;;;;;;;;;;;12.10;28.24;101271.56;4987836;28;19929;-74
2023/05/08 09:54:31;;;;;;;;;;;;;;;12.26;27.90;101266.31;4988494;28;20018;-74
2023/05/08 09:56:57;;;;;;;;;;;;;;;12.44;27.57;101265.19;5002070;28;19925;-74
2023/05/08 09:59:25;;;;;;;;;;;;;;;12.69;26.89;101266.66;4986992;28;19931;-73
2023/05/08 10:01:51;;;;;;;;;;;;;;;12.61;26.86;101262.44;4991337;28;19929;-74
2023/05/08 10:04:29;;;;;;;;;;;;;;;12.62;26.54;101275.06;4989143;28;19965;-74
2023/05/08 10:06:56;;;;;;;;;;;;;;;12.54;26.42;101265.34;4996820;28;19926;-74
2023/05/08 10:09:22;;;;;;;;;;;;;;;12.50;26.38;101266.94;4988579;28;19925;-74
2023/05/08 10:11:51;;;;;;;;;;;;;;;12.61;26.23;101263.25;4988245;28;20292;-74
2023/05/08 10:14:18;;;;;;;;;;;;;;;12.60;26.22;101266.25;4987055;28;19925;-73
2023/05/08 10:16:44;;;;;;;;;;;;;;;12.69;26.42;101253.75;4985264;28;20030;-74
2023/05/08 10:19:14;;;;;;;;;;;;;;;12.94;26.11;101260.69;4973158;28;19995;-73
2023/05/08 10:21:45;;;;;;;;;;;;;;;13.22;25.79;101263.47;4988753;28;20019;-74
2023/05/08 10:24:13;;;;;;;;;;;;;;;13.47;25.67;101252.81;4986973;28;19930;-74
2023/05/08 10:26:41;;;;;;;;;;;;;;;13.70;25.29;101253.56;4987390;28;19931;-74
2023/05/08 10:29:11;;;;;;;;;;;;;;;14.06;24.78;101255.78;4987802;28;19988;-74
2023/05/08 10:31:40;;;;;;;;;;;;;;;14.59;24.40;101249.53;4971535;28;19931;-74
2023/05/08 10:34:07;;;;;;;;;;;;;;;15.21;24.17;101247.09;4984970;28;20387;-74
2023/05/08 10:36:34;;;;;;;;;;;;;;;14.94;23.86;101248.09;4988059;28;20372;-74
2023/05/08 10:39:04;;;;;;;;;;;;;;;14.11;24.14;101252.25;4989005;28;19971;-74
2023/05/08 10:41:31;;;;;;;;;;;;;;;13.46;25.17;101242.06;4983777;28;19926;-74
2023/05/08 10:43:58;;;;;;;;;;;;;;;13.12;25.55;101247.69;4985511;28;19938;-74
2023/05/08 10:46:29;;;;;;;;;;;;;;;12.73;25.78;101251.34;5007045;28;20045;-74
2023/05/08 10:49:00;;;;;;;;;;;;;;;12.44;26.37;101251.47;4964740;28;19926;-74
2023/05/08 10:51:31;;;;;;;;;;;;;;;12.37;26.42;101245.34;4989290;28;19925;-74
2023/05/08 10:54:00;;;;;;;;;;;;;;;12.34;26.64;101244.78;4986125;28;19965;-73
2023/05/08 10:56:28;;;;;;;;;;;;;;;12.36;26.72;101246.44;4986327;28;19972;-73
2023/05/08 10:58:57;;;;;;;;;;;;;;;12.49;26.58;101246.09;4988531;28;20023;-74
2023/05/08 11:01:23;;;;;;;;;;;;;;;12.61;26.44;101241.31;4983361;28;19970;-73
2023/05/08 11:03:50;;;;;;;;;;;;;;;12.85;26.19;101238.34;4971138;28;20397;-73
2023/05/08 11:06:16;;;;;;;;;;;;;;;13.17;25.94;101236.78;4988666;28;19936;-73
2023/05/08 11:08:44;;;;;;;;;;;;;;;13.24;25.77;101244.81;4984599;28;20040;-73
2023/05/08 11:11:12;;;;;;;;;;;;;;;13.12;25.64;101232.06;4987195;28;20424;-73
2023/05/08 11:13:44;;;;;;;;;;;;;;;12.94;25.74;101235.13;5008834;28;19932;-73
2023/05/08 11:16:09;;;;;;;;;;;;;;;12.82;25.91;101227.03;4986013;28;20402;-73
2023/05/08 11:18:36;;;;;;;;;;;;;;;12.59;26.37;101232.50;4999556;28;20801;-73
2023/05/08 11:21:03;;;;;;;;;;;;;;;12.50;26.79;101238.69;4985177;28;19972;-74
2023/05/08 11:23:30;;;;;;;;;;;;;;;12.53;26.51;101232.69;4990317;28;20035;-73
2023/05/08 11:26:00;;;;;;;;;;;;;;;12.59;26.61;101237.97;4958833;28;19934;-73
2023/05/08 11:28:26;;;;;;;;;;;;;;;12.71;26.58;101229.63;4990076;28;20507;-73
2023/05/08 11:30:57;;;;;;;;;;;;;;;12.85;26.58;101234.75;4988511;28;19925;-73
2023/05/08 11:33:28;;;;;;;;;;;;;;;12.82;26.61;101235.25;4989439;28;20293;-73
2023/05/08 11:35:55;;;;;;;;;;;;;;;12.86;26.95;101228.16;4988529;28;19925;-74
2023/05/08 11:38:22;;;;;;;;;;;;;;;12.80;26.71;101224.56;4992079;28;19980;-73
2023/05/08 11:40:53;;;;;;;;;;;;;;;12.77;26.93;101227.78;4991262;28;19926;-73
2023/05/08 11:43:23;;;;;;;;;;;;;;;12.80;26.79;101235.53;4993907;28;19925;-73
2023/05/08 11:45:49;;;;;;;;;;;;;;;13.03;26.61;101228.09;4999261;28;19933;-73
2023/05/08 11:48:18;;;;;;;;;;;;;;;13.18;26.47;101233.78;4992323;28;20035;-73
2023/05/08 11:50:43;;;;;;;;;;;;;;;13.29;26.17;101231.16;4993820;28;19932;-74
2023/05/08 11:53:09;;;;;;;;;;;;;;;13.40;26.00;101229.34;4987230;28;20404;-73
2023/05/08 11:55:35;;;;;;;;;;;;;;;13.47;26.06;101236.31;4994741;28;19980;-73
2023/05/08 11:58:10;;;;;;;;;;;;;;;13.53;25.63;101225.38;4993168;28;19936;-74
2023/05/08 12:00:39;;;;;;;;;;;;;;;13.55;25.36;101225.94;4993052;28;19925;-73
2023/05/08 12:03:06;;;;;;;;;;;;;;;13.71;25.13;101227.72;4989723;28;19933;-73
2023/05/08 12:05:33;;;;;;;;;;;;;;;13.71;25.02;101224.97;4992612;28;20396;-72
2023/05/08 12:07:59;;;;;;;;;;;;;;;13.78;24.89;101232.19;4993789;28;19925;-73
2023/05/08 12:10:25;;;;;;;;;;;;;;;13.75;24.64;101226.13;4995016;28;19980;-74
2023/05/08 12:12:50;;;;;;;;;;;;;;;13.78;24.49;101224.75;4993089;28;19930;-73
2023/05/08 12:15:16;;;;;;;;;;;;;;;13.91;24.65;101223.53;4992284;28;19926;-74
2023/05/08 12:17:42;;;;;;;;;;;;;;;14.04;24.41;101227.72;5006011;28;19926;-74
2023/05/08 12:20:10;;;;;;;;;;;;;;;14.40;24.08;101218.91;4993637;28;19932;-74
2023/05/08 12:22:37;;;;;;;;;;;;;;;14.61;23.81;101208.84;4999246;28;19925;-74
2023/05/08 12:25:03;;;;;;;;;;;;;;;14.81;23.50;101215.56;4990362;28;19933;-74
2023/05/08 12:27:29;;;;;;;;;;;;;;;14.95;23.25;101211.22;4993230;28;19983;-74
2023/05/08 12:29:56;;;;;;;;;;;;;;;14.93;23.44;101216.16;4987900;28;19965;-74
2023/05/08 12:32:22;;;;;;;;;;;;;;;14.86;23.76;101207.31;4994266;28;20377;-74
2023/05/08 12:34:48;;;;;;;;;;;;;;;14.97;23.49;101210.91;4992458;28;19949;-74
2023/05/08 12:37:22;;;;;;;;;;;;;;;15.41;22.89;101196.72;4991295;28;19930;-74
2023/05/08 12:39:49;;;;;;;;;;;;;;;15.44;22.58;101196.16;4991931;28;20305;-73
2023/05/08 12:42:15;;;;;;;;;;;;;;;15.11;22.43;101201.06;4989626;28;19964;-73
2023/05/08 12:44:48;;;;;;;;;;;;;;;14.73;22.79;101195.69;4988888;28;20006;-73